Time;durP1;ratioP1;P1;durP2;ratioP2;P2;SDS_P1;SDS_P2;PMS_P1;PMS_P2;Temp;Humidity;BMP_temperature;BMP_pressure;BME280_temperature;BME280_humidity;BME280_pressure;Samples;Min_cycle;Max_cycle;Signal;HPM_P1;HPM_P2
2022/09/24 00:00:52;;;;;;;15.95;10.45;;;4.00;99.90;;;;;;5073181;28;20112;-76
2022/09/24 00:03:19;;;;;;;14.38;9.05;;;3.90;99.90;;;;;;5074658;28;20033;-76
2022/09/24 00:05:45;;;;;;;43.55;23.58;;;3.80;99.90;;;;;;5074381;28;20059;-76
2022/09/24 00:08:12;;;;;;;94.40;44.45;;;3.80;99.90;;;;;;5073146;28;20028;-76
2022/09/24 00:10:40;;;;;;;154.95;64.05;;;3.80;99.90;;;;;;5074341;28;20024;-76
2022/09/24 00:13:07;;;;;;;74.55;35.60;;;3.80;99.90;;;;;;5073094;28;20024;-76
2022/09/24 00:15:42;;;;;;;60.35;29.27;;;3.80;99.90;;;;;;5072938;28;20386;-76
2022/09/24 00:18:07;;;;;;;66.35;28.63;;;3.80;99.90;;;;;;5074229;28;20162;-76
2022/09/24 00:20:33;;;;;;;94.40;47.05;;;3.80;99.90;;;;;;5074119;28;20470;-76
2022/09/24 00:23:00;;;;;;;70.00;35.13;;;3.80;99.90;;;;;;5087937;28;20077;-76
2022/09/24 00:28:12;;;;;;;47.45;24.33;;;3.80;99.90;;;;;;5094372;28;20528;-76
2022/09/24 00:30:39;;;;;;;78.20;39.95;;;3.80;99.90;;;;;;5094285;28;20031;-76
2022/09/24 00:33:04;;;;;;;118.75;55.20;;;3.80;99.90;;;;;;5094081;28;20051;-76
2022/09/24 00:35:31;;;;;;;148.55;77.97;;;3.80;99.90;;;;;;5092751;28;20020;-76
2022/09/24 00:37:57;;;;;;;307.63;162.18;;;3.80;99.90;;;;;;5083904;28;20024;-76
2022/09/24 00:40:31;;;;;;;255.52;134.02;;;3.80;99.90;;;;;;5073604;28;20115;-76
2022/09/24 00:42:57;;;;;;;118.22;62.25;;;3.70;99.90;;;;;;5073768;28;20064;-76
2022/09/24 00:45:23;;;;;;;122.30;66.90;;;3.70;99.90;;;;;;5072413;28;20113;-76
2022/09/24 00:47:51;;;;;;;201.88;109.38;;;3.80;99.90;;;;;;5073579;28;20108;-76
2022/09/24 00:50:22;;;;;;;152.35;85.07;;;3.80;99.90;;;;;;5083026;28;20028;-76
2022/09/24 00:52:57;;;;;;;154.52;82.90;;;3.80;99.90;;;;;;5093838;28;20020;-76
2022/09/24 00:55:25;;;;;;;143.32;76.95;;;3.80;99.90;;;;;;5093844;28;20035;-76
2022/09/24 00:57:58;;;;;;;138.77;76.55;;;3.80;99.90;;;;;;5093800;28;20024;-76
2022/09/24 01:00:24;;;;;;;83.68;44.53;;;3.80;99.90;;;;;;5093836;28;20546;-76
2022/09/24 01:02:55;;;;;;;89.13;46.55;;;3.80;99.90;;;;;;5093441;28;20028;-76
2022/09/24 01:05:21;;;;;;;102.47;54.08;;;3.80;99.90;;;;;;5093645;28;20082;-76
2022/09/24 01:07:47;;;;;;;106.47;57.22;;;3.80;99.90;;;;;;5092190;28;20031;-76
2022/09/24 01:10:46;;;;;;;133.52;70.28;;;3.90;99.90;;;;;;5093562;28;20028;-75
2022/09/24 01:13:23;;;;;;;128.65;67.43;;;3.90;99.90;;;;;;5073614;28;20428;-76
2022/09/24 01:16:06;;;;;;;117.85;60.50;;;3.80;99.90;;;;;;5073446;28;20078;-76
2022/09/24 01:18:39;;;;;;;;;;;3.80;99.90;;;;;;5092312;28;20024;-76
2022/09/24 01:21:17;;;;;;;;;;;3.80;99.90;;;;;;5109741;28;19949;-76
2022/09/24 01:23:51;;;;;;;78.45;40.17;;;3.80;99.90;;;;;;5073156;28;19919;-75
2022/09/24 01:26:46;;;;;;;48.38;26.38;;;3.80;99.90;;;;;;5073100;28;20028;-76
2022/09/24 01:29:40;;;;;;;56.45;31.08;;;3.80;99.90;;;;;;5073074;28;20020;-76
2022/09/24 01:32:22;;;;;;;60.08;32.20;;;3.70;99.90;;;;;;5073031;28;20134;-76
2022/09/24 01:34:54;;;;;;;63.67;32.70;;;3.70;99.90;;;;;;5073212;28;20078;-76
2022/09/24 01:37:22;;;;;;;63.00;32.85;;;3.70;99.90;;;;;;5076899;28;20024;-76
2022/09/24 01:39:50;;;;;;;59.28;32.00;;;3.70;99.90;;;;;;5093173;28;20024;-76
2022/09/24 01:42:19;;;;;;;64.13;34.08;;;3.70;99.90;;;;;;5093225;28;20043;-76
2022/09/24 01:44:45;;;;;;;69.80;35.40;;;3.60;99.90;;;;;;5092169;28;20063;-76
2022/09/24 01:47:18;;;;;;;45.92;25.85;;;3.50;99.90;;;;;;5079270;28;20017;-76
2022/09/24 01:49:44;;;;;;;49.90;27.63;;;3.50;99.90;;;;;;5071757;28;20098;-76
2022/09/24 01:52:15;;;;;;;126.30;75.85;;;3.40;99.90;;;;;;5072828;28;20031;-76
2022/09/24 01:54:49;;;;;;;146.38;83.32;;;3.40;99.90;;;;;;5071664;28;20389;-76
2022/09/24 01:57:18;;;;;;;102.10;51.58;;;3.40;99.90;;;;;;5072796;28;20032;-76
2022/09/24 01:59:58;;;;;;;118.25;64.97;;;3.30;99.90;;;;;;5072850;28;20029;-76
2022/09/24 02:02:41;;;;;;;99.95;55.17;;;3.30;99.90;;;;;;5072747;28;20051;-76
2022/09/24 02:05:15;;;;;;;70.15;40.58;;;3.30;99.90;;;;;;5073114;28;20355;-76
2022/09/24 02:08:02;;;;;;;38.58;23.45;;;3.20;99.90;;;;;;5088518;28;20020;-76
2022/09/24 02:10:31;;;;;;;22.27;14.05;;;3.20;99.90;;;;;;5093154;28;20024;-76
2022/09/24 02:13:02;;;;;;;16.90;12.00;;;3.20;99.90;;;;;;5092873;28;20028;-75
2022/09/24 02:15:33;;;;;;;20.05;12.05;;;3.20;99.90;;;;;;5093129;28;20494;-76
2022/09/24 02:18:04;;;;;;;17.63;11.18;;;3.20;99.90;;;;;;5096804;28;20442;-76
2022/09/24 02:20:33;;;;;;;16.90;11.30;;;3.10;99.90;;;;;;5096799;28;20579;-75
2022/09/24 02:22:59;;;;;;;16.55;11.57;;;3.10;99.90;;;;;;5079146;28;20490;-76
2022/09/24 02:25:41;;;;;;;22.60;12.93;;;3.10;99.90;;;;;;5076267;28;20096;-76
2022/09/24 02:28:07;;;;;;;27.35;15.90;;;3.10;99.90;;;;;;5085837;28;20089;-76
2022/09/24 02:30:39;;;;;;;44.63;22.40;;;3.00;99.90;;;;;;5095239;28;20024;-76
2022/09/24 02:34:19;;;;;;;31.03;17.90;;;3.00;99.90;;;;;;5096426;28;20451;-76
2022/09/24 02:35:55;;;;;;;30.55;17.30;;;3.00;99.90;;;;;;5096543;28;20393;-76
2022/09/24 02:38:22;;;;;;;19.02;12.32;;;3.00;99.90;;;;;;5080941;28;20557;-76
2022/09/24 02:40:48;;;;;;;13.55;9.75;;;3.00;99.90;;;;;;5075939;28;20035;-76
2022/09/24 02:43:14;;;;;;;13.15;9.48;;;3.00;99.90;;;;;;5075836;28;20482;-76
2022/09/24 02:45:39;;;;;;;14.70;10.45;;;2.90;99.90;;;;;;5075999;28;20031;-76
2022/09/24 02:48:05;;;;;;;17.95;11.05;;;3.00;99.90;;;;;;5075727;28;20038;-76
2022/09/24 02:50:30;;;;;;;15.63;9.95;;;3.00;99.90;;;;;;5075898;28;20025;-76
2022/09/24 02:52:57;;;;;;;16.30;11.32;;;2.90;99.90;;;;;;5075705;28;20043;-75
2022/09/24 02:55:23;;;;;;;15.35;10.30;;;3.00;99.90;;;;;;5074530;28;20025;-76
2022/09/24 02:57:48;;;;;;;18.58;11.57;;;2.90;99.90;;;;;;5074331;28;20540;-76
2022/09/24 03:00:14;;;;;;;19.45;12.23;;;3.00;99.90;;;;;;5075822;28;20043;-76
2022/09/24 03:02:40;;;;;;;18.02;11.48;;;2.90;99.90;;;;;;5075449;28;20044;-76
2022/09/24 03:05:06;;;;;;;17.90;10.88;;;2.90;99.90;;;;;;5075598;28;20039;-76
2022/09/24 03:07:32;;;;;;;15.68;10.30;;;2.90;99.90;;;;;;5075678;28;20580;-76
2022/09/24 03:09:58;;;;;;;14.13;10.98;;;2.90;99.90;;;;;;5094029;28;20032;-76
2022/09/24 03:12:24;;;;;;;16.33;11.35;;;2.90;99.90;;;;;;5095864;28;20024;-76
2022/09/24 03:14:49;;;;;;;15.73;11.70;;;2.90;99.90;;;;;;5094434;28;20028;-76
2022/09/24 03:17:15;;;;;;;24.25;11.25;;;2.90;99.90;;;;;;5095731;28;20394;-76
2022/09/24 03:19:43;;;;;;;13.68;10.50;;;2.90;99.90;;;;;;5094243;28;20029;-76
2022/09/24 03:22:08;;;;;;;15.02;11.07;;;2.90;99.90;;;;;;5084838;28;20028;-76
2022/09/24 03:24:34;;;;;;;16.83;10.38;;;2.80;99.90;;;;;;5073938;28;20036;-76
2022/09/24 03:27:00;;;;;;;16.00;11.43;;;2.80;99.90;;;;;;5073053;28;20507;-76
2022/09/24 03:32:11;;;;;;;18.42;12.07;;;2.80;99.90;;;;;;5081080;28;20659;-76
2022/09/24 03:34:37;;;;;;;18.77;10.88;;;2.80;99.90;;;;;;5095241;28;20059;-76
2022/09/24 03:37:02;;;;;;;17.98;12.45;;;2.80;99.90;;;;;;5091825;28;20020;-76
2022/09/24 03:39:28;;;;;;;18.38;12.93;;;2.80;99.90;;;;;;5073564;28;20474;-76
2022/09/24 03:41:53;;;;;;;16.52;10.60;;;2.80;99.90;;;;;;5075013;28;20031;-76
2022/09/24 03:44:19;;;;;;;14.43;11.02;;;2.70;99.90;;;;;;5074833;28;20024;-76
2022/09/24 03:46:44;;;;;;;19.92;11.35;;;2.80;99.90;;;;;;5074812;28;20035;-76
2022/09/24 03:49:10;;;;;;;18.42;11.65;;;2.80;99.90;;;;;;5076485;28;20031;-76
2022/09/24 03:51:35;;;;;;;15.90;10.75;;;2.70;99.90;;;;;;5093705;28;20031;-76
2022/09/24 03:54:01;;;;;;;20.08;11.07;;;2.70;99.90;;;;;;5094558;28;20078;-76
2022/09/24 03:56:27;;;;;;;18.70;10.73;;;2.70;99.90;;;;;;5093572;28;20114;-76
2022/09/24 03:58:53;;;;;;;16.50;10.48;;;2.70;99.90;;;;;;5094830;28;20473;-76
2022/09/24 04:01:19;;;;;;;13.90;10.40;;;2.70;99.90;;;;;;5094809;28;20020;-76
2022/09/24 04:03:46;;;;;;;15.80;10.82;;;2.60;99.90;;;;;;5094715;28;20032;-76
2022/09/24 04:06:12;;;;;;;16.15;10.88;;;2.60;99.90;;;;;;5093497;28;20137;-76
2022/09/24 04:08:38;;;;;;;16.38;10.75;;;2.60;99.90;;;;;;5094454;28;20056;-76
2022/09/24 04:11:03;;;;;;;18.85;10.98;;;2.60;99.90;;;;;;5083896;28;20024;-76
2022/09/24 04:13:29;;;;;;;17.20;11.60;;;2.60;99.90;;;;;;5073045;28;20021;-76
2022/09/24 04:15:59;;;;;;;16.00;11.55;;;2.60;99.90;;;;;;5074245;28;20029;-76
2022/09/24 04:18:25;;;;;;;26.33;14.45;;;2.60;99.90;;;;;;5074204;28;20028;-76
2022/09/24 04:20:55;;;;;;;20.95;12.15;;;2.60;99.90;;;;;;5074143;28;20021;-76
2022/09/24 04:23:21;;;;;;;20.15;12.45;;;2.70;99.90;;;;;;5093814;28;20028;-76
2022/09/24 04:25:46;;;;;;;21.83;13.70;;;2.70;99.90;;;;;;5094167;28;20028;-76
2022/09/24 04:28:12;;;;;;;16.50;11.25;;;2.70;99.90;;;;;;5093043;28;20024;-75
2022/09/24 04:30:38;;;;;;;19.85;12.10;;;2.70;99.90;;;;;;5088987;28;20099;-76
2022/09/24 04:33:05;;;;;;;22.45;13.00;;;2.80;99.90;;;;;;5073953;28;20465;-75
2022/09/24 04:35:34;;;;;;;17.35;10.40;;;2.80;99.90;;;;;;5073782;28;20406;-76
2022/09/24 04:38:00;;;;;;;14.70;10.23;;;2.80;99.90;;;;;;5085528;28;20034;-76
2022/09/24 04:40:26;;;;;;;13.35;9.13;;;2.80;99.90;;;;;;5093791;28;20107;-76
2022/09/24 04:42:52;;;;;;;15.02;10.13;;;2.70;99.90;;;;;;5092510;28;20024;-76
2022/09/24 04:45:19;;;;;;;14.32;8.88;;;2.70;99.90;;;;;;5093859;28;20031;-76
2022/09/24 04:47:54;;;;;;;12.70;10.02;;;2.70;99.90;;;;;;5093806;28;20161;-76
2022/09/24 04:50:21;;;;;;;14.43;9.40;;;2.70;99.90;;;;;;5093985;28;20028;-76
2022/09/24 04:52:47;;;;;;;11.13;9.40;;;2.70;99.90;;;;;;5092390;28;20020;-76
2022/09/24 04:55:12;;;;;;;16.25;9.73;;;2.70;99.90;;;;;;5092468;28;20058;-76
2022/09/24 04:57:40;;;;;;;17.88;11.23;;;2.70;99.90;;;;;;5093690;28;20024;-76
2022/09/24 05:00:08;;;;;;;24.73;16.13;;;2.70;99.90;;;;;;5092244;28;20069;-76
2022/09/24 05:02:34;;;;;;;32.83;19.05;;;2.80;99.90;;;;;;5093537;28;20168;-77
2022/09/24 05:04:59;;;;;;;28.77;15.90;;;2.80;99.90;;;;;;5092922;28;20151;-76
2022/09/24 05:07:25;;;;;;;25.02;14.57;;;2.90;99.90;;;;;;5093595;28;20485;-76
2022/09/24 05:09:51;;;;;;;25.15;14.93;;;2.90;99.90;;;;;;5093337;28;20021;-76
2022/09/24 05:12:19;;;;;;;23.10;13.85;;;3.00;99.90;;;;;;5093278;28;20012;-76
2022/09/24 05:14:45;;;;;;;22.23;13.05;;;3.00;99.90;;;;;;5093314;28;20484;-76
2022/09/24 05:17:10;;;;;;;20.45;13.20;;;3.10;99.90;;;;;;5092976;28;20028;-76
2022/09/24 05:19:36;;;;;;;18.20;13.02;;;3.20;99.90;;;;;;5092998;28;20363;-77
2022/09/24 05:22:01;;;;;;;23.05;14.80;;;3.20;99.90;;;;;;5084651;28;20027;-77
2022/09/24 05:24:27;;;;;;;21.23;12.35;;;3.30;99.90;;;;;;5090793;28;20067;-76
2022/09/24 05:27:08;;;;;;;20.40;12.35;;;3.30;99.90;;;;;;5092931;28;20029;-75
2022/09/24 05:29:37;;;;;;;17.27;11.48;;;3.30;99.90;;;;;;5088824;28;20107;-75
2022/09/24 05:32:15;;;;;;;16.25;10.98;;;3.40;99.90;;;;;;5091131;28;20043;-75
2022/09/24 05:34:42;;;;;;;15.68;11.38;;;3.50;99.90;;;;;;5093085;28;20032;-75
2022/09/24 05:37:08;;;;;;;17.10;10.95;;;3.50;99.90;;;;;;5087355;28;20016;-79
2022/09/24 05:39:34;;;;;;;23.02;13.30;;;3.70;99.90;;;;;;5083323;28;20063;-76
2022/09/24 05:42:00;;;;;;;19.83;13.05;;;3.80;99.90;;;;;;5079054;28;20062;-77
2022/09/24 05:44:26;;;;;;;18.98;12.85;;;3.90;99.90;;;;;;5088022;28;20134;-76
2022/09/24 05:46:51;;;;;;;18.60;12.27;;;4.00;99.90;;;;;;5087577;28;20040;-76
2022/09/24 05:49:18;;;;;;;20.30;12.68;;;4.10;99.90;;;;;;5085678;28;20354;-75
2022/09/24 05:51:43;;;;;;;23.42;13.68;;;4.30;99.90;;;;;;5092117;28;20485;-74
2022/09/24 05:54:10;;;;;;;19.13;12.98;;;4.40;99.90;;;;;;5089468;28;20088;-74
2022/09/24 05:56:36;;;;;;;21.55;13.32;;;4.60;99.90;;;;;;5092044;28;20061;-76
2022/09/24 05:59:02;;;;;;;19.10;13.70;;;4.70;99.90;;;;;;5096604;28;20024;-76
2022/09/24 06:01:30;;;;;;;20.13;13.15;;;4.90;99.90;;;;;;5096338;28;20427;-78
2022/09/24 06:03:57;;;;;;;19.98;14.10;;;5.10;99.90;;;;;;5096247;28;20040;-75
2022/09/24 06:06:26;;;;;;;22.98;15.90;;;5.30;99.90;;;;;;5094393;28;20032;-75
2022/09/24 06:08:55;;;;;;;23.80;14.93;;;5.50;99.90;;;;;;5088320;28;20040;-77
2022/09/24 06:11:21;;;;;;;23.00;15.20;;;5.70;99.90;;;;;;5094427;28;20035;-76
2022/09/24 06:13:48;;;;;;;24.77;17.13;;;5.90;99.90;;;;;;5076544;28;20379;-76
2022/09/24 06:16:13;;;;;;;23.67;15.73;;;6.10;99.90;;;;;;5093058;28;20051;-76
2022/09/24 06:18:41;;;;;;;25.00;15.30;;;6.30;99.90;;;;;;5093422;28;20116;-76
2022/09/24 06:21:12;;;;;;;21.92;14.98;;;6.40;99.90;;;;;;5095520;28;20393;-77
2022/09/24 06:23:38;;;;;;;21.98;14.98;;;6.70;99.90;;;;;;5095611;28;20086;-75
2022/09/24 06:26:08;;;;;;;27.55;15.50;;;6.90;99.90;;;;;;5095749;28;20024;-74
2022/09/24 06:28:35;;;;;;;24.60;16.20;;;7.00;99.90;;;;;;5095732;28;20024;-76
2022/09/24 06:31:01;;;;;;;21.58;15.38;;;7.20;99.90;;;;;;5094094;28;20040;-74
2022/09/24 06:33:27;;;;;;;21.17;15.50;;;7.30;99.90;;;;;;5095627;28;20027;-73
2022/09/24 06:35:53;;;;;;;23.00;16.85;;;7.50;99.90;;;;;;5095824;28;20031;-74
2022/09/24 06:38:19;;;;;;;28.27;15.82;;;7.60;99.90;;;;;;5094517;28;20024;-77
2022/09/24 06:40:47;;;;;;;23.27;16.73;;;7.70;99.90;;;;;;5087368;28;20024;-76
2022/09/24 06:43:13;;;;;;;22.50;16.27;;;7.90;99.90;;;;;;5103641;28;20039;-77
2022/09/24 06:45:41;;;;;;;25.23;16.65;;;8.00;99.90;;;;;;5082033;28;20039;-75
2022/09/24 06:48:09;;;;;;;22.90;17.20;;;8.20;99.90;;;;;;5094235;28;20040;-76
2022/09/24 06:50:42;;;;;;;25.15;16.52;;;8.30;99.90;;;;;;5093361;28;20020;-75
2022/09/24 06:53:09;;;;;;;22.35;15.77;;;8.40;99.90;;;;;;5089861;28;20066;-75
2022/09/24 06:55:35;;;;;;;24.65;16.35;;;8.50;99.90;;;;;;5085988;28;20382;-76
2022/09/24 06:58:05;;;;;;;20.15;16.42;;;8.60;99.90;;;;;;5091610;28;20072;-77
2022/09/24 07:00:31;;;;;;;22.92;14.80;;;8.70;99.90;;;;;;5094531;28;20035;-76
2022/09/24 07:02:57;;;;;;;20.55;12.93;;;8.90;99.90;;;;;;5093944;28;20040;-76
2022/09/24 07:05:22;;;;;;;15.48;12.43;;;9.00;99.90;;;;;;5092820;28;20478;-75
2022/09/24 07:07:48;;;;;;;15.00;10.98;;;9.20;99.90;;;;;;5088846;28;20041;-77
2022/09/24 07:10:14;;;;;;;14.55;11.90;;;9.30;99.90;;;;;;5085535;28;20099;-75
2022/09/24 07:12:40;;;;;;;15.63;11.85;;;9.50;99.90;;;;;;5088012;28;20047;-76
2022/09/24 07:15:07;;;;;;;20.98;13.20;;;9.60;99.90;;;;;;5094285;28;20017;-77
2022/09/24 07:17:33;;;;;;;23.35;15.50;;;9.70;99.90;;;;;;5092867;28;20012;-75
2022/09/24 07:19:59;;;;;;;24.52;15.57;;;9.90;99.90;;;;;;5091816;28;20115;-75
2022/09/24 07:22:25;;;;;;;22.92;14.73;;;10.00;99.90;;;;;;5089340;28;20025;-76
2022/09/24 07:24:51;;;;;;;19.92;13.68;;;10.00;99.90;;;;;;5086932;28;20019;-76
2022/09/24 07:27:20;;;;;;;16.42;11.60;;;10.10;99.90;;;;;;5094091;28;20022;-76
2022/09/24 07:29:48;;;;;;;16.08;10.00;;;10.30;99.90;;;;;;5092292;28;20032;-76
2022/09/24 07:32:17;;;;;;;13.15;9.23;;;10.40;99.90;;;;;;5094036;28;20067;-76
2022/09/24 07:34:42;;;;;;;16.05;10.10;;;10.60;99.90;;;;;;5090209;28;20043;-75
2022/09/24 07:37:08;;;;;;;14.48;9.27;;;10.80;99.90;;;;;;5095850;28;20024;-76
2022/09/24 07:39:33;;;;;;;12.50;8.15;;;10.90;99.90;;;;;;5088454;28;20036;-75
2022/09/24 07:42:00;;;;;;;11.80;8.45;;;10.90;99.90;;;;;;5092891;28;20032;-74
2022/09/24 07:44:27;;;;;;;10.23;6.97;;;11.00;99.90;;;;;;5092772;28;20099;-74
2022/09/24 07:46:54;;;;;;;17.60;12.10;;;11.10;99.90;;;;;;5093359;28;20021;-75
2022/09/24 07:49:20;;;;;;;20.33;13.32;;;11.10;99.90;;;;;;5094053;28;20073;-74
2022/09/24 07:51:45;;;;;;;16.52;11.40;;;11.20;99.50;;;;;;5093571;28;20087;-75
2022/09/24 07:54:11;;;;;;;9.02;6.90;;;11.30;99.90;;;;;;5094008;28;20098;-75
2022/09/24 07:56:37;;;;;;;9.63;6.53;;;11.40;98.40;;;;;;5094135;28;20025;-75
2022/09/24 07:59:05;;;;;;;9.57;6.35;;;11.50;99.90;;;;;;5092626;28;20538;-74
2022/09/24 08:01:31;;;;;;;8.50;6.75;;;11.60;99.90;;;;;;5083563;28;20020;-76
2022/09/24 08:04:00;;;;;;;23.70;15.30;;;11.70;99.10;;;;;;5092619;28;20036;-76
2022/09/24 08:06:29;;;;;;;25.70;14.73;;;11.80;93.00;;;;;;5092216;28;20027;-75
2022/09/24 08:08:55;;;;;;;20.75;12.38;;;11.90;91.30;;;;;;5091246;28;20122;-76
2022/09/24 08:11:21;;;;;;;12.50;6.97;;;12.00;91.20;;;;;;5091879;28;20020;-74
2022/09/24 08:13:47;;;;;;;17.60;9.90;;;12.10;89.70;;;;;;5090604;28;20450;-73
2022/09/24 08:16:13;;;;;;;63.78;30.13;;;12.20;86.30;;;;;;5084416;28;20033;-75
2022/09/24 08:18:39;;;;;;;54.35;26.30;;;12.30;87.00;;;;;;5086075;28;20059;-76
2022/09/24 08:21:08;;;;;;;14.88;9.30;;;12.40;87.00;;;;;;5093439;28;20059;-74
2022/09/24 08:23:35;;;;;;;13.38;7.63;;;12.40;85.00;;;;;;5094859;28;20395;-75
2022/09/24 08:26:01;;;;;;;12.00;6.45;;;12.50;84.80;;;;;;5093458;28;20020;-74
2022/09/24 08:28:27;;;;;;;10.93;6.15;;;12.50;85.70;;;;;;5092830;28;20031;-76
2022/09/24 08:31:06;;;;;;;6.55;5.68;;;12.60;85.30;;;;;;5084860;28;20027;-75
2022/09/24 08:33:31;;;;;;;7.70;5.72;;;12.60;83.50;;;;;;5093042;28;20020;-74
2022/09/24 08:36:06;;;;;;;7.57;5.20;;;12.70;84.40;;;;;;5093019;28;20023;-75
2022/09/24 08:38:34;;;;;;;11.82;9.02;;;12.70;81.40;;;;;;5090489;28;20024;-76
2022/09/24 08:41:11;;;;;;;8.07;6.57;;;12.70;83.30;;;;;;5093154;28;20036;-76
2022/09/24 08:43:56;;;;;;;11.38;7.32;;;12.90;85.10;;;;;;5087674;28;20036;-76
2022/09/24 08:49:29;;;;;;;22.42;15.23;;;13.10;84.00;;;;;;5092553;28;20503;-74
2022/09/24 08:52:21;;;;;;;13.60;8.38;;;13.20;83.10;;;;;;5087238;28;20059;-75
2022/09/24 08:54:49;;;;;;;36.42;21.63;;;13.30;82.10;;;;;;5091306;28;20035;-75
2022/09/24 08:57:19;;;;;;;16.02;9.38;;;13.40;83.80;;;;;;5088438;28;20398;-76
2022/09/24 08:59:50;;;;;;;20.58;12.18;;;13.40;79.90;;;;;;5079673;28;20105;-75
2022/09/24 09:02:37;;;;;;;15.25;10.13;;;13.50;80.40;;;;;;5090062;28;20054;-75
2022/09/24 09:05:16;;;;;;;10.13;7.88;;;13.50;79.90;;;;;;5074320;28;20032;-75
2022/09/24 09:07:59;;;;;;;13.02;8.75;;;13.60;76.70;;;;;;5073295;28;20027;-76
2022/09/24 09:10:38;;;;;;;18.30;11.82;;;13.60;75.50;;;;;;5071870;28;20020;-73
2022/09/24 09:13:17;;;;;;;9.50;6.60;;;13.70;76.90;;;;;;5073384;28;20129;-77
2022/09/24 09:15:48;;;;;;;9.63;6.45;;;13.80;75.90;;;;;;5071940;28;20048;-76
2022/09/24 09:18:24;;;;;;;9.35;6.82;;;13.90;75.50;;;;;;5073050;28;20031;-73
2022/09/24 09:20:49;;;;;;;13.80;9.15;;;14.00;74.70;;;;;;5073021;28;20024;-76
2022/09/24 09:23:19;;;;;;;13.85;9.35;;;14.00;74.60;;;;;;5073121;28;20044;-73
2022/09/24 09:25:51;;;;;;;9.95;6.07;;;14.00;73.30;;;;;;5083525;28;20458;-75
2022/09/24 09:28:18;;;;;;;38.42;28.38;;;14.00;67.80;;;;;;5090911;28;20024;-75
2022/09/24 09:30:50;;;;;;;13.20;10.23;;;14.10;68.80;;;;;;5091720;28;20442;-73
2022/09/24 09:33:25;;;;;;;13.15;8.48;;;14.30;72.20;;;;;;5093500;28;20032;-75
2022/09/24 09:36:09;;;;;;;19.85;11.13;;;14.40;73.90;;;;;;5090960;28;20020;-73
2022/09/24 09:39:02;;;;;;;9.30;7.03;;;14.50;76.30;;;;;;5069578;28;20020;-73
2022/09/24 09:41:39;;;;;;;8.65;5.00;;;14.60;69.80;;;;;;5068137;28;20522;-73
2022/09/24 09:44:19;;;;;;;10.85;6.15;;;14.70;67.10;;;;;;5069202;28;20074;-73
2022/09/24 09:47:14;;;;;;;16.10;10.27;;;14.70;69.90;;;;;;5069667;28;20048;-75
2022/09/24 09:49:42;;;;;;;7.10;5.95;;;14.80;74.00;;;;;;5069802;28;20028;-75
2022/09/24 09:52:19;;;;;;;6.80;4.45;;;14.80;72.20;;;;;;5071795;28;20052;-75
2022/09/24 09:54:45;;;;;;;8.43;6.22;;;14.80;68.20;;;;;;5072878;28;20017;-76
2022/09/24 09:57:23;;;;;;;12.00;7.97;;;14.90;67.70;;;;;;5071532;28;20133;-75
2022/09/24 09:59:54;;;;;;;4.43;3.67;;;14.90;67.10;;;;;;5072832;28;20021;-74
2022/09/24 10:02:27;;;;;;;4.60;3.60;;;14.90;64.10;;;;;;5081842;28;20027;-76
2022/09/24 10:04:56;;;;;;;6.80;4.80;;;14.90;63.90;;;;;;5092793;28;20024;-76
2022/09/24 10:07:22;;;;;;;5.45;4.22;;;14.90;66.40;;;;;;5092936;28;20021;-74
2022/09/24 10:10:02;;;;;;;6.47;4.85;;;14.90;65.40;;;;;;5092804;28;20031;-74
2022/09/24 10:12:29;;;;;;;7.78;4.82;;;14.80;66.40;;;;;;5093044;28;20036;-74
2022/09/24 10:15:14;;;;;;;8.65;5.32;;;14.90;68.60;;;;;;5092851;28;20016;-74
2022/09/24 10:17:41;;;;;;;6.28;4.30;;;14.90;65.80;;;;;;5091662;28;20545;-76
2022/09/24 10:20:36;;;;;;;8.27;5.05;;;14.90;64.00;;;;;;5092693;28;20024;-74
2022/09/24 10:23:05;;;;;;;22.48;14.25;;;14.90;64.10;;;;;;5092543;28;20456;-74
2022/09/24 10:25:35;;;;;;;49.92;29.83;;;14.90;65.30;;;;;;5092601;28;20051;-74
2022/09/24 10:31:05;;;;;;;29.85;20.30;;;14.90;65.40;;;;;;5092677;28;20108;-74
2022/09/24 10:33:39;;;;;;;7.65;5.00;;;14.90;66.50;;;;;;5092913;28;20034;-76
2022/09/24 10:36:12;;;;;;;6.50;4.95;;;15.00;67.10;;;;;;5092663;28;20028;-74
2022/09/24 10:38:38;;;;;;;7.95;5.10;;;15.10;65.70;;;;;;5077272;28;20048;-74
2022/09/24 10:41:34;;;;;;;20.92;13.15;;;15.20;64.80;;;;;;5076011;28;20486;-74
2022/09/24 10:44:10;;;;;;;9.88;6.60;;;15.10;63.30;;;;;;5074762;28;20036;-75
2022/09/24 10:47:06;;;;;;;35.95;21.55;;;15.20;63.30;;;;;;5076147;28;20478;-75
2022/09/24 10:49:56;;;;;;;21.25;13.77;;;15.20;64.60;;;;;;5076030;28;20021;-75
2022/09/24 10:52:43;;;;;;;33.13;19.63;;;15.20;63.20;;;;;;5076099;28;20359;-75
2022/09/24 10:55:32;;;;;;;19.10;10.73;;;15.30;63.80;;;;;;5074566;28;20074;-74
2022/09/24 10:58:15;;;;;;;5.13;3.25;;;15.30;64.90;;;;;;5075827;28;20056;-74
2022/09/24 11:01:13;;;;;;;3.88;3.15;;;15.20;60.80;;;;;;5075803;28;20490;-74
2022/09/24 11:03:57;;;;;;;3.10;2.90;;;15.30;58.90;;;;;;5078036;28;20104;-76
2022/09/24 11:07:04;;;;;;;17.23;7.63;;;15.40;59.10;;;;;;5094636;28;20055;-75
2022/09/24 11:09:53;;;;;;;49.65;24.42;;;15.50;60.10;;;;;;5095969;28;20023;-74
2022/09/24 11:12:34;;;;;;;8.55;5.50;;;15.60;61.00;;;;;;5095882;28;20051;-76
2022/09/24 11:15:19;;;;;;;10.45;5.60;;;15.70;60.40;;;;;;5095791;28;20024;-76
2022/09/24 11:18:02;;;;;;;4.10;3.42;;;15.70;59.30;;;;;;5094412;28;20029;-74
2022/09/24 11:20:38;;;;;;;4.80;3.92;;;15.80;58.20;;;;;;5095590;28;20062;-76
2022/09/24 11:23:31;;;;;;;5.78;3.90;;;15.80;59.40;;;;;;5094337;28;20036;-76
2022/09/24 11:26:03;;;;;;;25.95;10.95;;;15.90;59.60;;;;;;5094181;28;20032;-74
2022/09/24 11:28:56;;;;;;;11.60;5.85;;;15.90;59.00;;;;;;5095670;28;20107;-76
2022/09/24 11:31:38;;;;;;;90.90;56.03;;;15.80;60.00;;;;;;5095276;28;20144;-74
2022/09/24 11:34:14;;;;;;;43.25;23.45;;;15.80;60.40;;;;;;5094179;28;20026;-75
2022/09/24 11:37:04;;;;;;;30.67;19.88;;;15.80;59.80;;;;;;5095234;28;20046;-74
2022/09/24 11:40:03;;;;;;;60.13;37.95;;;15.70;59.60;;;;;;5093919;28;20489;-76
2022/09/24 11:42:55;;;;;;;26.25;17.45;;;15.70;61.40;;;;;;5095165;28;20048;-76
2022/09/24 11:45:26;;;;;;;8.23;6.13;;;15.60;60.80;;;;;;5095203;28;20051;-74
2022/09/24 11:47:53;;;;;;;9.95;5.55;;;15.70;59.90;;;;;;5094562;28;20109;-76
2022/09/24 11:50:39;;;;;;;26.05;10.15;;;15.70;59.00;;;;;;5094658;28;20032;-74
2022/09/24 11:53:29;;;;;;;27.50;18.30;;;15.70;58.40;;;;;;5095114;28;20024;-76
2022/09/24 11:56:00;;;;;;;16.13;12.70;;;15.70;59.60;;;;;;5093734;28;20474;-74
2022/09/24 11:58:34;;;;;;;15.93;9.52;;;15.80;59.40;;;;;;5095109;28;20500;-74
2022/09/24 12:01:35;;;;;;;12.88;6.55;;;15.80;59.80;;;;;;5095066;28;20016;-74
2022/09/24 12:04:07;;;;;;;6.88;3.97;;;15.80;60.90;;;;;;5094908;28;20036;-74
2022/09/24 12:07:05;;;;;;;8.48;4.57;;;15.90;59.80;;;;;;5094829;28;20023;-75
2022/09/24 12:09:35;;;;;;;11.38;4.95;;;15.90;59.30;;;;;;5093520;28;20119;-75
2022/09/24 12:12:25;;;;;;;37.70;24.92;;;15.90;59.20;;;;;;5093354;28;20024;-74
2022/09/24 12:15:12;;;;;;;4.00;3.42;;;15.90;59.70;;;;;;5093359;28;20020;-74
2022/09/24 12:17:47;;;;;;;4.18;2.65;;;15.90;58.90;;;;;;5094684;28;20111;-75
2022/09/24 12:20:25;;;;;;;5.80;3.20;;;15.80;58.30;;;;;;5094757;28;20026;-74
2022/09/24 12:22:58;;;;;;;10.77;7.97;;;15.80;59.30;;;;;;5094382;28;20458;-74
2022/09/24 12:25:31;;;;;;;9.60;7.88;;;15.80;61.20;;;;;;5094533;28;20039;-75
2022/09/24 12:27:57;;;;;;;7.05;5.90;;;15.90;61.80;;;;;;5093016;28;20020;-74
2022/09/24 12:33:38;;;;;;;8.90;6.80;;;16.00;60.40;;;;;;5094573;28;20097;-74
2022/09/24 12:36:08;;;;;;;68.50;23.00;;;16.10;60.80;;;;;;5094311;28;20020;-76
2022/09/24 12:38:54;;;;;;;14.55;6.10;;;16.20;58.40;;;;;;5109864;28;20048;-74
2022/09/24 12:41:25;;;;;;;8.23;4.80;;;16.30;58.10;;;;;;5094172;28;20420;-75
2022/09/24 12:44:01;;;;;;;5.00;3.20;;;16.30;60.30;;;;;;5092847;28;20085;-75
2022/09/24 12:46:50;;;;;;;3.75;2.67;;;16.40;60.10;;;;;;5092835;28;20027;-76
2022/09/24 12:49:25;;;;;;;3.08;2.88;;;16.30;59.20;;;;;;5094239;28;20028;-75
2022/09/24 12:51:56;;;;;;;4.05;2.65;;;16.30;57.60;;;;;;5094163;28;20020;-76
2022/09/24 12:54:34;;;;;;;2.97;2.70;;;16.40;56.30;;;;;;5094113;28;20111;-74
2022/09/24 12:57:16;;;;;;;3.75;2.63;;;16.40;56.60;;;;;;5093902;28;20478;-76
2022/09/24 12:59:51;;;;;;;3.72;3.10;;;16.60;57.70;;;;;;5093657;28;20036;-74
2022/09/24 13:02:22;;;;;;;6.07;3.88;;;16.60;58.30;;;;;;5083972;28;20027;-74
2022/09/24 13:04:59;;;;;;;4.78;2.97;;;16.60;59.50;;;;;;5073678;28;20102;-75
2022/09/24 13:07:38;;;;;;;7.80;5.22;;;16.50;56.90;;;;;;5073438;28;20029;-74
2022/09/24 13:10:15;;;;;;;2.83;2.58;;;16.40;56.50;;;;;;5073562;28;20056;-74
2022/09/24 13:12:42;;;;;;;5.05;4.30;;;16.20;57.70;;;;;;5073306;28;20529;-76
2022/09/24 13:15:28;;;;;;;15.13;7.97;;;16.10;59.80;;;;;;5073315;28;20020;-74